createdAt,value
2022-09-29T00:01:31.956Z,100.00
2022-09-29T00:04:00.496Z,100.00
2022-09-29T00:06:29.042Z,100.00
2022-09-29T00:09:00.547Z,100.00
2022-09-29T00:11:29.068Z,100.00
2022-09-29T00:13:57.600Z,100.00
2022-09-29T00:16:26.226Z,100.00
2022-09-29T00:18:55.997Z,100.00
2022-09-29T00:21:24.899Z,100.00
2022-09-29T00:23:53.327Z,100.00
2022-09-29T00:26:24.595Z,100.00
2022-09-29T00:28:56.464Z,100.00
2022-09-29T00:31:26.098Z,100.00
2022-09-29T00:33:54.854Z,100.00
2022-09-29T00:36:24.159Z,100.00
2022-09-29T00:38:54.102Z,100.00
2022-09-29T00:41:27.269Z,100.00
2022-09-29T00:43:59.939Z,100.00
2022-09-29T00:46:38.399Z,100.00
2022-09-29T00:49:13.803Z,100.00
2022-09-29T00:51:46.924Z,100.00
2022-09-29T00:54:16.410Z,100.00
2022-09-29T00:56:50.719Z,100.00
2022-09-29T00:59:25.186Z,100.00
2022-09-29T01:01:55.754Z,100.00
2022-09-29T01:04:24.630Z,100.00
2022-09-29T01:06:57.294Z,100.00
2022-09-29T01:09:30.230Z,100.00
2022-09-29T01:12:01.356Z,100.00
2022-09-29T01:14:31.702Z,100.00
2022-09-29T01:17:00.831Z,100.00
2022-09-29T01:19:38.482Z,100.00
2022-09-29T01:22:15.677Z,100.00
2022-09-29T01:24:58.391Z,100.00
2022-09-29T01:28:05.672Z,100.00
2022-09-29T01:30:55.763Z,100.00
2022-09-29T01:33:34.056Z,100.00
2022-09-29T01:36:13.118Z,100.00
2022-09-29T01:38:55.739Z,100.00
2022-09-29T01:41:34.747Z,100.00
2022-09-29T01:44:07.880Z,100.00
2022-09-29T01:46:40.791Z,100.00
2022-09-29T01:49:11.360Z,100.00
2022-09-29T01:51:45.309Z,100.00
2022-09-29T01:54:19.237Z,100.00
2022-09-29T01:56:52.233Z,100.00
2022-09-29T01:59:29.417Z,100.00
2022-09-29T02:02:13.494Z,100.00
2022-09-29T02:04:45.378Z,100.00
2022-09-29T02:07:20.010Z,100.00
2022-09-29T02:09:54.653Z,100.00
2022-09-29T02:12:28.471Z,100.00
2022-09-29T02:14:58.038Z,100.00
2022-09-29T02:17:33.079Z,100.00
2022-09-29T02:20:02.197Z,100.00
2022-09-29T02:22:30.614Z,100.00
2022-09-29T02:25:00.866Z,100.00
2022-09-29T02:27:29.975Z,100.00
2022-09-29T02:29:59.354Z,100.00
2022-09-29T02:32:32.846Z,100.00
2022-09-29T02:35:02.168Z,100.00
2022-09-29T02:37:43.630Z,100.00
2022-09-29T02:40:22.880Z,100.00
2022-09-29T02:43:05.742Z,100.00
2022-09-29T02:45:42.177Z,100.00
2022-09-29T02:48:23.944Z,100.00
2022-09-29T02:51:08.057Z,100.00
2022-09-29T02:53:55.089Z,100.00
2022-09-29T02:56:30.332Z,100.00
2022-09-29T02:59:03.930Z,100.00
2022-09-29T03:01:33.662Z,100.00
2022-09-29T03:04:04.952Z,100.00
2022-09-29T03:06:33.510Z,100.00
2022-09-29T03:09:01.860Z,100.00
2022-09-29T03:11:30.726Z,100.00
2022-09-29T03:13:59.091Z,100.00
2022-09-29T03:16:27.505Z,100.00
2022-09-29T03:18:57.171Z,100.00
2022-09-29T03:21:26.999Z,100.00
2022-09-29T03:23:57.687Z,100.00
2022-09-29T03:26:26.192Z,100.00
2022-09-29T03:28:55.197Z,100.00
2022-09-29T03:31:23.737Z,100.00
2022-09-29T03:33:52.258Z,100.00
2022-09-29T03:36:20.921Z,100.00
2022-09-29T03:38:54.016Z,100.00
2022-09-29T03:41:22.959Z,100.00
2022-09-29T03:43:51.778Z,100.00
2022-09-29T03:46:20.395Z,100.00
2022-09-29T03:48:48.908Z,100.00
2022-09-29T03:51:17.687Z,100.00
2022-09-29T03:53:46.076Z,100.00
2022-09-29T03:56:16.382Z,100.00
2022-09-29T03:58:44.981Z,100.00
2022-09-29T04:01:13.655Z,100.00
2022-09-29T04:03:42.085Z,100.00
2022-09-29T04:06:10.492Z,100.00
2022-09-29T04:08:41.756Z,100.00
2022-09-29T04:11:10.649Z,100.00
2022-09-29T04:13:40.429Z,100.00
2022-09-29T04:16:09.087Z,100.00
2022-09-29T04:18:38.146Z,100.00
2022-09-29T04:21:07.831Z,100.00
2022-09-29T04:23:37.025Z,100.00
2022-09-29T04:26:06.526Z,100.00
2022-09-29T04:28:35.975Z,100.00
2022-09-29T04:31:06.303Z,100.00
2022-09-29T04:33:34.777Z,100.00
2022-09-29T04:36:04.173Z,100.00
2022-09-29T04:38:32.895Z,100.00
2022-09-29T04:41:01.662Z,100.00
2022-09-29T04:43:30.103Z,100.00
2022-09-29T04:46:10.264Z,100.00
2022-09-29T04:48:38.818Z,100.00
2022-09-29T04:51:08.215Z,100.00
2022-09-29T04:53:37.475Z,100.00
2022-09-29T04:56:10.219Z,100.00
2022-09-29T04:58:38.706Z,100.00
2022-09-29T05:01:13.052Z,100.00
2022-09-29T05:03:43.004Z,100.00
2022-09-29T05:06:11.755Z,100.00
2022-09-29T05:08:40.386Z,100.00
2022-09-29T05:11:10.722Z,100.00
2022-09-29T05:13:41.549Z,100.00
2022-09-29T05:16:11.444Z,100.00
2022-09-29T05:18:40.112Z,100.00
2022-09-29T05:21:27.039Z,100.00
2022-09-29T05:23:56.353Z,100.00
2022-09-29T05:26:25.465Z,100.00
2022-09-29T05:28:53.969Z,100.00
2022-09-29T05:31:23.773Z,100.00
2022-09-29T05:33:52.258Z,100.00
2022-09-29T05:36:20.806Z,100.00
2022-09-29T05:38:49.538Z,100.00
2022-09-29T05:41:22.738Z,100.00
2022-09-29T05:43:52.800Z,100.00
2022-09-29T05:46:22.294Z,100.00
2022-09-29T05:48:52.564Z,100.00
2022-09-29T05:51:23.503Z,100.00
2022-09-29T05:53:52.905Z,100.00
2022-09-29T05:56:23.096Z,100.00
2022-09-29T05:58:52.588Z,100.00
2022-09-29T06:01:23.164Z,100.00
2022-09-29T06:03:55.382Z,100.00
2022-09-29T06:06:28.040Z,100.00
2022-09-29T06:08:58.785Z,100.00
2022-09-29T06:11:29.547Z,100.00
2022-09-29T06:13:58.055Z,100.00
2022-09-29T06:16:28.848Z,100.00
2022-09-29T06:19:00.138Z,100.00
2022-09-29T06:21:30.014Z,100.00
2022-09-29T06:23:59.705Z,100.00
2022-09-29T06:26:29.283Z,100.00
2022-09-29T06:28:58.895Z,100.00
2022-09-29T06:31:29.379Z,100.00
2022-09-29T06:34:00.724Z,100.00
2022-09-29T06:36:50.779Z,100.00
2022-09-29T06:39:19.346Z,100.00
2022-09-29T06:41:53.722Z,100.00
2022-09-29T06:44:23.561Z,100.00
2022-09-29T06:46:52.459Z,100.00
2022-09-29T06:49:22.717Z,100.00
2022-09-29T06:51:51.718Z,100.00
2022-09-29T06:54:22.518Z,100.00
2022-09-29T06:56:52.256Z,100.00
2022-09-29T06:59:21.150Z,100.00
2022-09-29T07:01:51.194Z,100.00
2022-09-29T07:04:22.747Z,100.00
2022-09-29T07:06:52.001Z,100.00
2022-09-29T07:09:21.249Z,100.00
2022-09-29T07:11:51.700Z,100.00
2022-09-29T07:14:22.978Z,100.00
2022-09-29T07:16:52.251Z,100.00
2022-09-29T07:19:22.787Z,100.00
2022-09-29T07:21:51.942Z,100.00
2022-09-29T07:24:23.727Z,100.00
2022-09-29T07:26:52.179Z,100.00
2022-09-29T07:29:21.039Z,100.00
2022-09-29T07:31:52.601Z,100.00
2022-09-29T07:34:23.520Z,100.00
2022-09-29T07:36:52.653Z,100.00
2022-09-29T07:39:22.777Z,100.00
2022-09-29T07:41:52.096Z,100.00
2022-09-29T07:44:20.802Z,100.00
2022-09-29T07:46:50.153Z,100.00
2022-09-29T07:49:20.674Z,100.00
2022-09-29T07:51:51.530Z,100.00
2022-09-29T07:54:20.301Z,100.00
2022-09-29T07:56:48.939Z,100.00
2022-09-29T07:59:17.289Z,100.00
2022-09-29T08:01:45.679Z,100.00
2022-09-29T08:04:14.013Z,100.00
2022-09-29T08:06:43.655Z,100.00
2022-09-29T08:09:13.855Z,100.00
2022-09-29T08:11:44.443Z,100.00
2022-09-29T08:14:13.480Z,100.00
2022-09-29T08:16:42.281Z,100.00
2022-09-29T08:19:10.939Z,100.00
2022-09-29T08:21:39.401Z,100.00
2022-09-29T08:24:08.858Z,100.00
2022-09-29T08:26:44.008Z,100.00
2022-09-29T08:29:16.755Z,100.00
2022-09-29T08:31:46.277Z,100.00
2022-09-29T08:34:15.512Z,100.00
2022-09-29T08:36:44.722Z,100.00
2022-09-29T08:39:15.583Z,100.00
2022-09-29T08:42:02.200Z,100.00
2022-09-29T08:44:39.667Z,100.00
2022-09-29T08:47:21.919Z,100.00
2022-09-29T08:49:56.322Z,100.00
2022-09-29T08:52:32.114Z,100.00
2022-09-29T08:55:24.664Z,100.00
2022-09-29T08:57:58.385Z,100.00
2022-09-29T09:00:44.364Z,100.00
2022-09-29T09:03:38.798Z,100.00
2022-09-29T09:06:20.633Z,100.00
2022-09-29T09:08:59.324Z,100.00
2022-09-29T09:11:41.296Z,100.00
2022-09-29T09:14:27.666Z,100.00
2022-09-29T09:17:06.536Z,100.00
2022-09-29T09:20:03.250Z,100.00
2022-09-29T09:22:43.863Z,100.00
2022-09-29T09:25:25.357Z,100.00
2022-09-29T09:28:13.579Z,100.00
2022-09-29T09:30:50.494Z,100.00
2022-09-29T09:33:31.641Z,100.00
2022-09-29T09:36:06.392Z,100.00
2022-09-29T09:38:49.949Z,100.00
2022-09-29T09:41:23.436Z,100.00
2022-09-29T09:43:59.075Z,100.00
2022-09-29T09:46:35.219Z,100.00
2022-09-29T09:49:13.088Z,100.00
2022-09-29T09:51:48.379Z,100.00
2022-09-29T09:54:31.526Z,100.00
2022-09-29T09:57:44.518Z,100.00
2022-09-29T10:00:16.212Z,100.00
2022-09-29T10:02:49.507Z,100.00
2022-09-29T10:05:20.276Z,100.00
2022-09-29T10:07:49.670Z,100.00
2022-09-29T10:10:21.838Z,100.00
2022-09-29T10:12:59.872Z,100.00
2022-09-29T10:15:33.652Z,100.00
2022-09-29T10:18:08.073Z,100.00
2022-09-29T10:20:39.163Z,100.00
2022-09-29T10:23:27.062Z,100.00
2022-09-29T10:26:08.169Z,100.00
2022-09-29T10:28:44.276Z,100.00
2022-09-29T10:31:34.492Z,100.00
2022-09-29T10:34:15.240Z,100.00
2022-09-29T10:36:52.339Z,100.00
2022-09-29T10:39:35.436Z,100.00
2022-09-29T10:42:05.389Z,100.00
2022-09-29T10:44:34.551Z,100.00
2022-09-29T10:47:15.929Z,100.00
2022-09-29T10:49:45.839Z,100.00
2022-09-29T10:52:25.937Z,100.00
2022-09-29T10:54:58.431Z,100.00
2022-09-29T10:57:30.030Z,100.00
2022-09-29T10:59:59.460Z,100.00
2022-09-29T11:02:33.907Z,100.00
2022-09-29T11:05:07.046Z,100.00
2022-09-29T11:07:36.138Z,100.00
2022-09-29T11:10:04.938Z,100.00
2022-09-29T11:12:37.899Z,100.00
2022-09-29T11:15:25.014Z,100.00
2022-09-29T11:17:53.953Z,100.00
2022-09-29T11:20:30.246Z,100.00
2022-09-29T11:23:27.862Z,100.00
2022-09-29T11:26:21.520Z,100.00
2022-09-29T11:29:04.526Z,100.00
2022-09-29T11:31:58.456Z,100.00
2022-09-29T11:34:44.251Z,100.00
2022-09-29T11:37:29.258Z,100.00
2022-09-29T11:40:03.712Z,100.00
2022-09-29T11:42:47.877Z,100.00
2022-09-29T11:45:20.198Z,100.00
2022-09-29T11:48:27.262Z,100.00
2022-09-29T11:51:06.355Z,100.00
2022-09-29T11:53:56.526Z,100.00
2022-09-29T11:56:32.347Z,100.00
2022-09-29T11:59:15.314Z,100.00
2022-09-29T12:01:59.614Z,100.00
2022-09-29T12:04:48.273Z,99.35
2022-09-29T12:07:28.098Z,100.00
2022-09-29T12:10:14.211Z,92.59
2022-09-29T12:15:26.344Z,96.27
2022-09-29T12:18:00.851Z,91.17
2022-09-29T12:20:34.105Z,100.00
2022-09-29T12:23:13.289Z,95.97
2022-09-29T12:25:53.295Z,93.80
2022-09-29T12:28:29.022Z,86.72
2022-09-29T12:31:02.632Z,88.35
2022-09-29T12:33:36.049Z,80.56
2022-09-29T12:36:34.842Z,73.56
2022-09-29T12:39:16.734Z,70.64
2022-09-29T12:41:54.332Z,63.16
2022-09-29T12:44:32.855Z,70.67
2022-09-29T12:47:06.888Z,72.41
2022-09-29T12:49:43.342Z,72.21
2022-09-29T12:52:19.072Z,64.55
2022-09-29T12:54:51.941Z,67.73
2022-09-29T12:57:26.481Z,61.40
2022-09-29T12:59:59.973Z,57.33
2022-09-29T13:02:56.151Z,51.80
2022-09-29T13:05:51.650Z,49.02
2022-09-29T13:08:49.967Z,49.74
2022-09-29T13:11:35.153Z,51.84
2022-09-29T13:14:17.128Z,46.27
2022-09-29T13:17:00.717Z,41.57
2022-09-29T13:20:12.436Z,41.94
2022-09-29T13:22:59.687Z,43.08
2022-09-29T13:25:35.917Z,43.85
2022-09-29T13:28:14.228Z,44.81
2022-09-29T13:30:44.337Z,45.29
2022-09-29T13:33:19.874Z,41.17
2022-09-29T13:35:50.576Z,44.76
2022-09-29T13:38:21.362Z,44.48
2022-09-29T13:41:14.191Z,41.34
2022-09-29T13:44:06.242Z,41.12
2022-09-29T13:46:41.194Z,42.54
2022-09-29T13:49:28.330Z,40.33
2022-09-29T13:51:58.946Z,44.06
2022-09-29T13:54:30.835Z,43.61
2022-09-29T13:57:29.504Z,43.83
2022-09-29T14:00:18.764Z,40.81
2022-09-29T14:03:02.577Z,44.53
2022-09-29T14:05:41.463Z,45.02
2022-09-29T14:08:21.545Z,42.74
2022-09-29T14:10:55.789Z,44.74
2022-09-29T14:13:45.981Z,44.54
2022-09-29T14:16:27.879Z,44.83
2022-09-29T14:19:04.527Z,48.98
2022-09-29T14:21:53.488Z,60.02
2022-09-29T14:24:48.468Z,69.17
2022-09-29T14:27:36.408Z,75.09
2022-09-29T14:30:20.250Z,80.81
2022-09-29T14:32:54.869Z,87.26
2022-09-29T14:35:32.223Z,90.91
2022-09-29T14:38:13.512Z,93.72
2022-09-29T14:40:56.144Z,94.58
2022-09-29T14:43:29.051Z,96.90
2022-09-29T14:46:39.743Z,100.00
2022-09-29T14:49:43.926Z,100.00
2022-09-29T14:52:23.309Z,100.00
2022-09-29T14:58:01.970Z,100.00
2022-09-29T15:00:40.107Z,100.00
2022-09-29T15:03:27.062Z,100.00
2022-09-29T15:06:12.804Z,100.00
2022-09-29T15:08:45.320Z,100.00
2022-09-29T15:11:29.028Z,100.00
2022-09-29T15:13:59.037Z,100.00
2022-09-29T15:16:44.623Z,100.00
2022-09-29T15:19:37.865Z,100.00
2022-09-29T15:22:30.995Z,100.00
2022-09-29T15:25:15.018Z,100.00
2022-09-29T15:27:51.810Z,100.00
2022-09-29T15:30:23.530Z,100.00
2022-09-29T15:32:54.009Z,100.00
2022-09-29T15:35:24.775Z,100.00
2022-09-29T15:37:59.568Z,100.00
2022-09-29T15:40:37.724Z,100.00
2022-09-29T15:43:23.010Z,100.00
2022-09-29T15:45:58.536Z,100.00
2022-09-29T15:48:28.573Z,100.00
2022-09-29T15:50:58.510Z,100.00
2022-09-29T15:53:28.835Z,100.00
2022-09-29T15:56:01.437Z,100.00
2022-09-29T15:58:38.272Z,100.00
2022-09-29T16:01:08.718Z,100.00
2022-09-29T16:03:41.248Z,100.00
2022-09-29T16:06:21.458Z,100.00
2022-09-29T16:08:56.143Z,100.00
2022-09-29T16:11:28.383Z,100.00
2022-09-29T16:14:02.963Z,100.00
2022-09-29T16:16:36.864Z,100.00
2022-09-29T16:19:13.345Z,100.00
2022-09-29T16:21:42.715Z,100.00
2022-09-29T16:24:19.280Z,100.00
2022-09-29T16:26:52.570Z,100.00
2022-09-29T16:29:30.902Z,100.00
2022-09-29T16:32:42.614Z,100.00
2022-09-29T16:35:53.779Z,100.00
2022-09-29T16:38:35.877Z,100.00
2022-09-29T16:41:11.528Z,100.00
2022-09-29T16:43:43.214Z,100.00
2022-09-29T16:46:16.299Z,100.00
2022-09-29T16:48:47.409Z,100.00
2022-09-29T16:54:07.498Z,100.00
2022-09-29T16:56:36.941Z,100.00
2022-09-29T16:59:12.729Z,100.00
2022-09-29T17:01:42.537Z,100.00
2022-09-29T17:04:12.462Z,100.00
2022-09-29T17:06:48.019Z,100.00
2022-09-29T17:09:24.083Z,100.00
2022-09-29T17:11:52.895Z,100.00
2022-09-29T17:14:32.157Z,100.00
2022-09-29T17:17:00.762Z,100.00
2022-09-29T17:19:29.363Z,100.00
2022-09-29T17:21:59.710Z,100.00
2022-09-29T17:24:30.393Z,100.00
2022-09-29T17:27:17.779Z,100.00
2022-09-29T17:29:48.005Z,100.00
2022-09-29T17:32:17.740Z,100.00
2022-09-29T17:34:46.409Z,100.00
2022-09-29T17:37:19.666Z,100.00
2022-09-29T17:39:48.705Z,100.00
2022-09-29T17:42:17.846Z,100.00
2022-09-29T17:44:49.557Z,100.00
2022-09-29T17:47:37.308Z,100.00
2022-09-29T17:50:19.495Z,100.00
2022-09-29T17:52:51.115Z,100.00
2022-09-29T17:55:24.387Z,100.00
2022-09-29T17:57:54.423Z,100.00
2022-09-29T18:00:55.364Z,100.00
2022-09-29T18:03:40.139Z,100.00
2022-09-29T18:06:48.537Z,100.00
2022-09-29T18:10:12.297Z,100.00
2022-09-29T18:12:44.106Z,100.00
2022-09-29T18:15:12.661Z,100.00
2022-09-29T18:17:43.177Z,100.00
2022-09-29T18:20:17.009Z,100.00
2022-09-29T18:22:46.222Z,100.00
2022-09-29T18:25:17.882Z,100.00
2022-09-29T18:27:46.484Z,100.00
2022-09-29T18:30:20.610Z,100.00
2022-09-29T18:32:51.961Z,100.00
2022-09-29T18:35:22.163Z,100.00
2022-09-29T18:37:50.763Z,100.00
2022-09-29T18:40:21.012Z,100.00
2022-09-29T18:42:52.573Z,100.00
2022-09-29T18:45:24.082Z,100.00
2022-09-29T18:47:55.771Z,100.00
2022-09-29T18:50:26.052Z,100.00
2022-09-29T18:52:54.770Z,100.00
2022-09-29T18:55:26.207Z,100.00
2022-09-29T18:57:55.808Z,100.00
2022-09-29T19:00:26.221Z,100.00
2022-09-29T19:02:57.863Z,100.00
2022-09-29T19:05:29.385Z,100.00
2022-09-29T19:07:59.845Z,100.00
2022-09-29T19:10:31.392Z,100.00
2022-09-29T19:13:01.581Z,100.00
2022-09-29T19:15:33.165Z,100.00
2022-09-29T19:18:09.309Z,100.00
2022-09-29T19:20:38.146Z,100.00
2022-09-29T19:23:06.714Z,100.00
2022-09-29T19:25:37.716Z,100.00
2022-09-29T19:28:07.551Z,100.00
2022-09-29T19:30:38.824Z,100.00
2022-09-29T19:33:12.328Z,100.00
2022-09-29T19:35:46.197Z,100.00
2022-09-29T19:38:14.625Z,100.00
2022-09-29T19:40:46.070Z,100.00
2022-09-29T19:43:14.932Z,100.00
2022-09-29T19:45:44.935Z,100.00
2022-09-29T19:48:16.943Z,100.00
2022-09-29T19:51:03.624Z,100.00
2022-09-29T19:53:32.799Z,100.00
2022-09-29T19:56:01.270Z,100.00
2022-09-29T19:58:29.769Z,100.00
2022-09-29T20:01:00.045Z,100.00
2022-09-29T20:03:30.885Z,100.00
2022-09-29T20:06:03.373Z,100.00
2022-09-29T20:08:32.229Z,100.00
2022-09-29T20:11:07.074Z,100.00
2022-09-29T20:13:35.855Z,100.00
2022-09-29T20:16:05.980Z,100.00
2022-09-29T20:18:38.345Z,100.00
2022-09-29T20:21:07.824Z,100.00
2022-09-29T20:23:37.535Z,100.00
2022-09-29T20:26:09.014Z,100.00
2022-09-29T20:28:38.397Z,100.00
2022-09-29T20:31:07.849Z,100.00
2022-09-29T20:33:43.063Z,100.00
2022-09-29T20:36:11.580Z,100.00
2022-09-29T20:38:41.496Z,100.00
2022-09-29T20:41:10.359Z,100.00
2022-09-29T20:43:39.074Z,100.00
2022-09-29T20:46:09.773Z,100.00
2022-09-29T20:48:41.291Z,100.00
2022-09-29T20:51:16.508Z,100.00
2022-09-29T20:53:46.625Z,100.00
2022-09-29T20:56:17.311Z,100.00
2022-09-29T20:58:47.890Z,100.00
2022-09-29T21:01:21.137Z,100.00
2022-09-29T21:03:52.653Z,100.00
2022-09-29T21:06:21.704Z,100.00
2022-09-29T21:08:50.357Z,100.00
2022-09-29T21:11:19.461Z,100.00
2022-09-29T21:13:48.188Z,100.00
2022-09-29T21:16:16.835Z,100.00
2022-09-29T21:18:45.325Z,100.00
2022-09-29T21:21:15.683Z,100.00
2022-09-29T21:23:45.054Z,100.00
2022-09-29T21:26:15.708Z,100.00
2022-09-29T21:28:49.123Z,100.00
2022-09-29T21:31:19.423Z,100.00
2022-09-29T21:33:54.618Z,100.00
2022-09-29T21:36:25.642Z,100.00
2022-09-29T21:38:54.524Z,100.00
2022-09-29T21:41:26.254Z,100.00
2022-09-29T21:43:56.374Z,100.00
2022-09-29T21:46:27.526Z,100.00
2022-09-29T21:48:57.746Z,100.00
2022-09-29T21:51:30.453Z,100.00
2022-09-29T21:54:02.062Z,100.00
2022-09-29T21:56:32.951Z,100.00
2022-09-29T21:59:01.645Z,100.00
2022-09-29T22:01:31.261Z,100.00
2022-09-29T22:03:59.914Z,100.00
2022-09-29T22:06:32.283Z,100.00
2022-09-29T22:09:02.423Z,100.00
2022-09-29T22:11:33.239Z,100.00
2022-09-29T22:14:02.906Z,100.00
2022-09-29T22:16:33.043Z,100.00
2022-09-29T22:21:54.960Z,100.00
2022-09-29T22:24:26.842Z,100.00
2022-09-29T22:26:55.659Z,100.00
2022-09-29T22:29:24.612Z,100.00
2022-09-29T22:31:53.863Z,100.00
2022-09-29T22:34:22.653Z,100.00
2022-09-29T22:36:53.688Z,100.00
2022-09-29T22:39:23.522Z,100.00
2022-09-29T22:41:52.638Z,100.00
2022-09-29T22:44:20.991Z,100.00
2022-09-29T22:46:49.613Z,100.00
2022-09-29T22:49:18.133Z,100.00
2022-09-29T22:51:46.986Z,100.00
2022-09-29T22:54:15.443Z,100.00
2022-09-29T22:56:45.190Z,100.00
2022-09-29T22:59:14.448Z,100.00
2022-09-29T23:01:43.443Z,100.00
2022-09-29T23:04:12.052Z,100.00
2022-09-29T23:06:41.606Z,100.00
2022-09-29T23:09:10.677Z,100.00
2022-09-29T23:11:39.171Z,100.00
2022-09-29T23:14:08.958Z,100.00
2022-09-29T23:16:37.366Z,100.00
2022-09-29T23:19:06.161Z,100.00
2022-09-29T23:21:34.800Z,100.00
2022-09-29T23:24:03.515Z,100.00
2022-09-29T23:26:32.239Z,100.00
2022-09-29T23:29:01.448Z,100.00
2022-09-29T23:31:31.171Z,100.00
2022-09-29T23:34:01.279Z,100.00
2022-09-29T23:36:31.788Z,100.00
2022-09-29T23:39:11.522Z,100.00
2022-09-29T23:41:42.292Z,100.00
2022-09-29T23:44:13.082Z,100.00
2022-09-29T23:46:43.783Z,100.00
2022-09-29T23:49:14.537Z,100.00
2022-09-29T23:51:45.843Z,100.00
2022-09-29T23:54:16.253Z,100.00
2022-09-29T23:56:44.946Z,100.00
2022-09-29T23:59:13.398Z,100.00
